Time;durP1;ratioP1;P1;durP2;ratioP2;P2;SDS_P1;SDS_P2;PMS_P1;PMS_P2;Temp;Humidity;BMP_temperature;BMP_pressure;BME280_temperature;BME280_humidity;BME280_pressure;Samples;Min_cycle;Max_cycle;Signal;HPM_P1;HPM_P2
2023/09/27 00:00:17;;;;;;;25.38;19.08;;;15.30;99.90;;;;;;5052168;28;20116;-63
2023/09/27 00:02:46;;;;;;;22.92;19.27;;;15.20;99.90;;;;;;5036383;28;20041;-63
2023/09/27 00:05:13;;;;;;;27.20;21.80;;;15.10;99.90;;;;;;5056883;28;20060;-63
2023/09/27 00:07:41;;;;;;;24.63;19.20;;;15.10;99.90;;;;;;5063709;28;20072;-63
2023/09/27 00:10:10;;;;;;;21.65;19.45;;;15.10;99.90;;;;;;5073471;28;20040;-63
2023/09/27 00:12:37;;;;;;;25.80;21.75;;;15.10;99.90;;;;;;5060372;28;20045;-64
2023/09/27 00:15:04;;;;;;;23.48;19.42;;;15.10;99.90;;;;;;5052621;28;20045;-63
2023/09/27 00:17:31;;;;;;;22.50;18.42;;;15.00;99.90;;;;;;5058471;28;20505;-64
2023/09/27 00:19:57;;;;;;;22.25;17.67;;;15.00;99.90;;;;;;5054930;28;20128;-63
2023/09/27 00:22:25;;;;;;;22.38;17.65;;;15.00;99.90;;;;;;5052374;28;20542;-63
2023/09/27 00:24:51;;;;;;;25.27;19.75;;;15.00;99.90;;;;;;5053924;28;20473;-63
2023/09/27 00:27:17;;;;;;;21.45;18.95;;;14.90;99.90;;;;;;5053949;28;20098;-63
2023/09/27 00:29:43;;;;;;;19.98;17.80;;;14.90;99.90;;;;;;5052782;28;20410;-63
2023/09/27 00:32:08;;;;;;;20.48;18.30;;;14.90;99.90;;;;;;5052550;28;20375;-63
2023/09/27 00:34:35;;;;;;;19.67;17.67;;;14.90;99.90;;;;;;5051824;28;20129;-63
2023/09/27 00:37:00;;;;;;;21.17;18.88;;;14.90;99.90;;;;;;5049567;28;20040;-63
2023/09/27 00:39:26;;;;;;;22.15;19.05;;;14.90;99.90;;;;;;5054262;28;20765;-63
2023/09/27 00:41:52;;;;;;;23.10;19.88;;;14.80;99.90;;;;;;5052125;28;20037;-63
2023/09/27 00:44:18;;;;;;;21.63;19.20;;;14.90;99.90;;;;;;5052178;28;20041;-63
2023/09/27 00:46:44;;;;;;;22.40;18.88;;;14.90;99.90;;;;;;5054987;28;20041;-63
2023/09/27 00:49:12;;;;;;;22.42;18.95;;;14.80;99.90;;;;;;5070561;28;20080;-64
2023/09/27 00:51:38;;;;;;;22.13;19.73;;;14.80;99.90;;;;;;5072131;28;20061;-63
2023/09/27 00:54:04;;;;;;;22.60;18.92;;;14.80;99.90;;;;;;5072509;28;20178;-63
2023/09/27 00:56:31;;;;;;;21.88;19.25;;;14.80;99.90;;;;;;5070343;28;20039;-63
2023/09/27 00:58:58;;;;;;;22.17;19.75;;;14.80;99.90;;;;;;5060668;28;20507;-63
2023/09/27 01:01:27;;;;;;;22.63;19.83;;;14.80;99.90;;;;;;5071288;28;20051;-63
2023/09/27 01:03:53;;;;;;;22.13;19.77;;;14.80;99.90;;;;;;5072759;28;20040;-63
2023/09/27 01:06:20;;;;;;;22.48;20.13;;;14.80;99.90;;;;;;5064860;28;20047;-63
2023/09/27 01:08:46;;;;;;;21.40;18.65;;;14.70;99.90;;;;;;5052756;28;20044;-63
2023/09/27 01:11:12;;;;;;;20.80;18.60;;;14.80;99.90;;;;;;5034416;28;20076;-63
2023/09/27 01:13:38;;;;;;;21.30;18.48;;;14.80;99.90;;;;;;5051726;28;20044;-63
2023/09/27 01:16:04;;;;;;;22.08;19.67;;;14.80;99.90;;;;;;5057624;28;20037;-63
2023/09/27 01:18:30;;;;;;;23.25;18.67;;;14.70;99.90;;;;;;5071212;28;20440;-63
2023/09/27 01:20:56;;;;;;;23.83;20.45;;;14.80;99.90;;;;;;5072164;28;20036;-63
2023/09/27 01:23:22;;;;;;;28.52;22.10;;;14.80;99.90;;;;;;5071052;28;20052;-63
2023/09/27 01:25:51;;;;;;;21.23;18.35;;;14.80;99.90;;;;;;5071425;28;20080;-63
2023/09/27 01:28:21;;;;;;;23.08;19.33;;;14.80;99.90;;;;;;5064772;28;20036;-63
2023/09/27 01:30:47;;;;;;;19.52;16.10;;;14.70;99.90;;;;;;5050661;28;20052;-63
2023/09/27 01:33:13;;;;;;;26.50;20.55;;;14.70;99.90;;;;;;5051412;28;20045;-63
2023/09/27 01:35:43;;;;;;;21.67;19.30;;;14.80;99.90;;;;;;5062247;28;20055;-63
2023/09/27 01:38:10;;;;;;;19.33;17.15;;;14.80;99.90;;;;;;5037149;28;20037;-63
2023/09/27 01:40:42;;;;;;;23.70;18.30;;;14.80;99.90;;;;;;5051401;28;20048;-63
2023/09/27 01:43:08;;;;;;;24.60;19.17;;;14.70;99.90;;;;;;5051295;28;20044;-63
2023/09/27 01:45:34;;;;;;;22.75;19.02;;;14.80;99.90;;;;;;5050586;28;20045;-63
2023/09/27 01:48:01;;;;;;;20.27;18.13;;;14.70;99.90;;;;;;5051702;28;20059;-63
2023/09/27 01:50:28;;;;;;;20.75;18.00;;;14.60;99.90;;;;;;5052308;28;20067;-63
2023/09/27 01:52:56;;;;;;;20.85;18.27;;;14.70;99.90;;;;;;5034411;28;20060;-63
2023/09/27 01:55:22;;;;;;;20.95;18.75;;;14.60;99.90;;;;;;5061872;28;20040;-63
2023/09/27 01:57:48;;;;;;;22.85;18.83;;;14.60;99.90;;;;;;5065216;28;20048;-63
2023/09/27 02:00:15;;;;;;;21.40;18.00;;;14.60;99.90;;;;;;5051504;28;20067;-63
2023/09/27 02:02:42;;;;;;;19.55;17.13;;;14.60;99.90;;;;;;5051051;28;20041;-63
2023/09/27 02:05:11;;;;;;;21.05;18.75;;;14.60;99.90;;;;;;5052344;28;20045;-63
2023/09/27 02:07:38;;;;;;;23.20;17.77;;;14.60;99.90;;;;;;5061733;28;20072;-63
2023/09/27 02:10:05;;;;;;;21.02;18.48;;;14.50;99.90;;;;;;5064660;28;20041;-63
2023/09/27 02:12:31;;;;;;;20.35;17.23;;;14.60;99.90;;;;;;5050817;28;20432;-63
2023/09/27 02:14:56;;;;;;;24.85;21.48;;;14.50;99.90;;;;;;5050347;28;20044;-63
2023/09/27 02:17:22;;;;;;;20.52;16.40;;;14.50;99.90;;;;;;5051196;28;20039;-63
2023/09/27 02:19:48;;;;;;;20.00;17.23;;;14.50;99.90;;;;;;5052182;28;20131;-63
2023/09/27 02:22:13;;;;;;;20.52;17.70;;;14.50;99.90;;;;;;5058194;28;20064;-63
2023/09/27 02:24:40;;;;;;;17.60;15.43;;;14.50;99.90;;;;;;5070884;28;20075;-63
2023/09/27 02:27:05;;;;;;;18.38;16.45;;;14.50;99.90;;;;;;5065480;28;20048;-63
2023/09/27 02:29:32;;;;;;;21.35;18.73;;;14.50;99.90;;;;;;5050630;28;20040;-63
2023/09/27 02:31:58;;;;;;;18.70;16.70;;;14.50;99.90;;;;;;5052503;28;20048;-63
2023/09/27 02:34:24;;;;;;;19.63;17.52;;;14.50;99.90;;;;;;5049949;28;20037;-62
2023/09/27 02:36:50;;;;;;;18.77;16.88;;;14.40;99.90;;;;;;5066120;28;20044;-63
2023/09/27 02:39:16;;;;;;;22.38;18.35;;;14.40;99.90;;;;;;5070551;28;20085;-62
2023/09/27 02:41:41;;;;;;;21.23;17.80;;;14.40;99.90;;;;;;5050960;28;20420;-62
2023/09/27 02:44:07;;;;;;;22.17;17.85;;;14.40;99.90;;;;;;5050457;28;20187;-62
2023/09/27 02:46:33;;;;;;;21.30;18.45;;;14.40;99.90;;;;;;5058454;28;20045;-62
2023/09/27 02:48:58;;;;;;;20.98;18.63;;;14.30;99.90;;;;;;5050467;28;20119;-63
2023/09/27 02:51:24;;;;;;;22.10;17.70;;;14.30;99.90;;;;;;5050412;28;20053;-62
2023/09/27 02:53:49;;;;;;;21.60;18.77;;;14.30;99.90;;;;;;5050230;28;20088;-63
2023/09/27 02:56:15;;;;;;;21.05;18.63;;;14.30;99.90;;;;;;5049736;28;20041;-62
2023/09/27 02:58:41;;;;;;;18.88;16.88;;;14.30;99.90;;;;;;5057037;28;20048;-62
2023/09/27 03:01:08;;;;;;;23.92;19.20;;;14.30;99.90;;;;;;5051590;28;20433;-62
2023/09/27 03:03:34;;;;;;;21.25;19.05;;;14.30;99.90;;;;;;5050974;28;20401;-63
2023/09/27 03:05:59;;;;;;;22.20;19.73;;;14.20;99.90;;;;;;5050649;28;20045;-62
2023/09/27 03:08:25;;;;;;;22.15;18.70;;;14.20;99.90;;;;;;5050382;28;20045;-62
2023/09/27 03:10:51;;;;;;;22.98;19.60;;;14.20;99.90;;;;;;5050769;28;20033;-63
2023/09/27 03:13:18;;;;;;;21.00;18.80;;;14.20;99.90;;;;;;5033535;28;20402;-63
2023/09/27 03:15:44;;;;;;;23.50;19.88;;;14.30;99.90;;;;;;5050164;28;20049;-62
2023/09/27 03:18:09;;;;;;;24.67;19.88;;;14.20;99.90;;;;;;5061292;28;20047;-62
2023/09/27 03:20:36;;;;;;;24.85;21.08;;;14.20;99.90;;;;;;5070323;28;20439;-62
2023/09/27 03:23:02;;;;;;;20.35;18.15;;;14.20;99.90;;;;;;5062004;28;20051;-63
2023/09/27 03:25:28;;;;;;;23.48;18.27;;;14.10;99.90;;;;;;5051827;28;20048;-62
2023/09/27 03:27:54;;;;;;;25.80;19.55;;;14.10;99.90;;;;;;5071383;28;20032;-62
2023/09/27 03:30:20;;;;;;;23.02;20.60;;;14.10;99.90;;;;;;5069364;28;20044;-62
2023/09/27 03:32:46;;;;;;;22.98;20.33;;;14.10;99.90;;;;;;5069889;28;20032;-63
2023/09/27 03:35:12;;;;;;;21.75;19.45;;;14.10;99.90;;;;;;5060337;28;20399;-62
2023/09/27 03:37:38;;;;;;;24.67;19.33;;;14.10;99.90;;;;;;5052967;28;20060;-62
2023/09/27 03:40:13;;;;;;;23.17;20.40;;;14.20;99.90;;;;;;5070994;28;20087;-62
2023/09/27 03:42:42;;;;;;;21.88;17.70;;;14.20;99.90;;;;;;5053797;28;20378;-62
2023/09/27 03:45:07;;;;;;;22.67;18.08;;;14.10;99.90;;;;;;5060771;28;20097;-62
2023/09/27 03:47:33;;;;;;;28.17;22.48;;;14.10;99.90;;;;;;5070444;28;20124;-62
2023/09/27 03:49:59;;;;;;;21.38;17.75;;;14.10;99.90;;;;;;5053548;28;20071;-63
2023/09/27 03:52:25;;;;;;;24.02;20.58;;;14.00;99.90;;;;;;5052715;28;20041;-62
2023/09/27 03:54:51;;;;;;;21.55;19.20;;;14.10;99.90;;;;;;5054461;28;20049;-62
2023/09/27 03:57:17;;;;;;;23.77;18.98;;;14.10;99.90;;;;;;5056063;28;20411;-62
2023/09/27 03:59:43;;;;;;;22.10;18.85;;;14.10;99.90;;;;;;5072193;28;20445;-63
2023/09/27 04:02:09;;;;;;;23.25;20.65;;;14.10;99.90;;;;;;5107323;28;20127;-62
2023/09/27 04:04:35;;;;;;;25.52;20.02;;;14.00;99.90;;;;;;5107143;28;20044;-62
2023/09/27 04:07:00;;;;;;;26.52;21.15;;;14.00;99.90;;;;;;5089415;28;20136;-62
2023/09/27 04:09:27;;;;;;;23.17;20.67;;;13.90;99.90;;;;;;5063017;28;20921;-62
2023/09/27 04:11:52;;;;;;;23.90;21.38;;;14.00;99.90;;;;;;5053470;28;20041;-62
2023/09/27 04:14:18;;;;;;;25.98;21.00;;;13.90;99.90;;;;;;5052500;28;20493;-62
2023/09/27 04:16:44;;;;;;;23.38;20.83;;;13.90;99.90;;;;;;5053103;28;20033;-62
2023/09/27 04:19:10;;;;;;;29.35;23.45;;;13.90;99.90;;;;;;5059324;28;20080;-63
2023/09/27 04:21:36;;;;;;;23.95;20.35;;;13.90;99.90;;;;;;5053385;28;20037;-62
2023/09/27 04:24:04;;;;;;;23.88;21.25;;;13.80;99.90;;;;;;5053030;28;20124;-62
2023/09/27 04:26:30;;;;;;;25.00;22.17;;;13.90;99.90;;;;;;5060772;28;20106;-62
2023/09/27 04:28:56;;;;;;;22.38;19.98;;;13.80;99.90;;;;;;5074233;28;20097;-62
2023/09/27 04:31:22;;;;;;;26.13;22.17;;;13.80;99.90;;;;;;5073098;28;20048;-62
2023/09/27 04:33:48;;;;;;;24.05;21.45;;;13.90;99.90;;;;;;5042646;28;20041;-62
2023/09/27 04:36:17;;;;;;;28.60;23.70;;;13.70;99.90;;;;;;5053877;28;20103;-62
2023/09/27 04:38:47;;;;;;;24.88;21.92;;;13.80;99.90;;;;;;5053080;28;20394;-62
2023/09/27 04:41:14;;;;;;;26.70;23.75;;;13.70;99.90;;;;;;5052036;28;20029;-62
2023/09/27 04:43:42;;;;;;;25.40;22.65;;;13.70;99.90;;;;;;5052543;28;20049;-62
2023/09/27 04:46:11;;;;;;;25.20;22.50;;;13.70;99.90;;;;;;5068399;28;20174;-62
2023/09/27 04:48:36;;;;;;;23.58;21.05;;;13.70;99.90;;;;;;5070487;28;20045;-63
2023/09/27 04:51:03;;;;;;;25.52;22.85;;;13.70;99.90;;;;;;5055644;28;20542;-62
2023/09/27 04:53:30;;;;;;;23.30;20.77;;;13.70;99.90;;;;;;5071986;28;21095;-62
2023/09/27 04:55:56;;;;;;;24.30;21.23;;;13.60;99.90;;;;;;5058082;28;20079;-63
2023/09/27 04:58:22;;;;;;;25.95;22.83;;;13.60;99.90;;;;;;5063125;28;20039;-63
2023/09/27 05:00:48;;;;;;;24.35;21.73;;;13.60;99.90;;;;;;5063323;28;20037;-63
2023/09/27 05:03:13;;;;;;;25.45;22.80;;;13.60;99.90;;;;;;5052593;28;20041;-63
2023/09/27 05:05:39;;;;;;;29.98;26.75;;;13.60;99.90;;;;;;5052212;28;20053;-62
2023/09/27 05:08:05;;;;;;;36.75;29.00;;;13.50;99.90;;;;;;5052448;28;20123;-62
2023/09/27 05:10:31;;;;;;;30.63;25.38;;;13.50;99.90;;;;;;5058461;28;20045;-63
2023/09/27 05:12:56;;;;;;;24.73;22.08;;;13.50;99.90;;;;;;5069138;28;20102;-63
2023/09/27 05:15:22;;;;;;;27.45;21.60;;;13.50;99.90;;;;;;5051864;28;20482;-62
2023/09/27 05:17:48;;;;;;;25.70;22.23;;;13.50;99.90;;;;;;5051033;28;20048;-63
2023/09/27 05:20:14;;;;;;;33.30;29.52;;;13.50;99.90;;;;;;5051792;28;20052;-62
2023/09/27 05:22:43;;;;;;;33.63;29.88;;;13.60;99.90;;;;;;5051811;28;20102;-62
2023/09/27 05:25:09;;;;;;;27.10;23.95;;;13.50;99.90;;;;;;5051916;28;20072;-62
2023/09/27 05:27:34;;;;;;;30.15;25.55;;;13.50;99.90;;;;;;5051712;28;20498;-62
2023/09/27 05:30:01;;;;;;;26.67;23.88;;;13.50;99.90;;;;;;5067771;28;20048;-62
2023/09/27 05:32:27;;;;;;;34.45;29.42;;;13.50;99.90;;;;;;5051730;28;20041;-62
2023/09/27 05:34:53;;;;;;;32.45;28.92;;;13.50;99.90;;;;;;5057722;28;20047;-62
2023/09/27 05:37:19;;;;;;;26.08;23.33;;;13.60;99.90;;;;;;5070097;28;20048;-62
2023/09/27 05:39:44;;;;;;;34.53;30.60;;;13.60;99.90;;;;;;5071373;28;20051;-62
2023/09/27 05:42:10;;;;;;;30.98;25.33;;;13.50;99.90;;;;;;5070395;28;20036;-62
2023/09/27 05:44:36;;;;;;;27.33;24.33;;;13.50;99.90;;;;;;5050465;28;20045;-62
2023/09/27 05:47:01;;;;;;;29.73;26.38;;;13.60;99.90;;;;;;5051723;28;20068;-62
2023/09/27 05:49:27;;;;;;;30.92;27.08;;;13.50;99.90;;;;;;5052066;28;20045;-62
2023/09/27 05:51:53;;;;;;;29.00;24.15;;;13.50;99.90;;;;;;5050581;28;20084;-62
2023/09/27 05:54:22;;;;;;;26.33;23.27;;;13.60;99.90;;;;;;5055792;28;20088;-63
2023/09/27 05:56:53;;;;;;;26.92;24.02;;;13.50;99.90;;;;;;5051176;28;20048;-62
2023/09/27 05:59:19;;;;;;;26.63;23.67;;;13.60;99.90;;;;;;5050366;28;20509;-62
2023/09/27 06:01:45;;;;;;;25.70;23.02;;;13.50;99.90;;;;;;5065428;28;20503;-63
2023/09/27 06:04:10;;;;;;;28.92;24.45;;;13.60;99.90;;;;;;5052025;28;20135;-63
2023/09/27 06:06:37;;;;;;;35.03;29.63;;;13.60;99.90;;;;;;5083789;28;20116;-63
2023/09/27 06:09:09;;;;;;;28.60;24.15;;;13.70;99.90;;;;;;5046873;28;20076;-63
2023/09/27 06:11:35;;;;;;;25.45;22.73;;;13.70;99.90;;;;;;5053679;28;20044;-63
2023/09/27 06:14:01;;;;;;;27.15;24.25;;;13.70;99.90;;;;;;5069999;28;20090;-63
2023/09/27 06:16:28;;;;;;;27.58;24.17;;;13.70;99.90;;;;;;5062294;28;20033;-62
2023/09/27 06:18:53;;;;;;;29.17;25.85;;;13.70;99.90;;;;;;5052014;28;20117;-63
2023/09/27 06:21:19;;;;;;;29.77;26.65;;;13.80;99.90;;;;;;5065185;28;20119;-63
2023/09/27 06:24:00;;;;;;;38.17;31.38;;;13.80;99.90;;;;;;5064447;28;20044;-62
2023/09/27 06:26:26;;;;;;;25.38;22.63;;;13.80;99.90;;;;;;5062344;28;20086;-62
2023/09/27 06:28:52;;;;;;;25.67;22.70;;;13.70;99.90;;;;;;5051848;28;20069;-62
2023/09/27 06:31:17;;;;;;;26.60;22.95;;;13.80;99.90;;;;;;5050418;28;20040;-62
2023/09/27 06:33:46;;;;;;;29.50;26.30;;;13.80;99.90;;;;;;5049793;28;20127;-62
2023/09/27 06:36:11;;;;;;;28.55;25.55;;;13.90;99.90;;;;;;5053246;28;20094;-62
2023/09/27 06:38:37;;;;;;;30.63;26.50;;;13.90;99.90;;;;;;5050399;28;20037;-62
2023/09/27 06:41:03;;;;;;;29.88;26.73;;;14.00;99.90;;;;;;5040512;28;20029;-62
2023/09/27 06:43:31;;;;;;;27.27;24.35;;;14.10;99.90;;;;;;5047976;28;20352;-62
2023/09/27 06:45:58;;;;;;;28.55;23.88;;;14.10;99.90;;;;;;5032017;28;20453;-63
2023/09/27 06:48:24;;;;;;;31.38;27.00;;;14.20;99.90;;;;;;5048297;28;20375;-63
2023/09/27 06:50:50;;;;;;;37.40;33.35;;;14.20;99.90;;;;;;5052485;28;20099;-62
2023/09/27 06:53:16;;;;;;;32.30;27.73;;;14.40;99.90;;;;;;5049040;28;20460;-63
2023/09/27 06:55:44;;;;;;;34.15;27.10;;;14.40;99.90;;;;;;5047323;28;20076;-62
2023/09/27 06:58:11;;;;;;;34.17;30.23;;;14.40;99.90;;;;;;5031796;28;20471;-63
2023/09/27 07:00:45;;;;;;;34.13;27.40;;;14.50;99.90;;;;;;5046370;28;20045;-63
2023/09/27 07:03:11;;;;;;;31.13;27.70;;;14.50;99.90;;;;;;5048647;28;20056;-63
2023/09/27 07:05:37;;;;;;;31.67;28.30;;;14.70;99.90;;;;;;5047840;28;20390;-63
2023/09/27 07:08:03;;;;;;;33.33;29.33;;;14.70;99.90;;;;;;5048406;28;20055;-63
2023/09/27 07:10:29;;;;;;;34.03;27.95;;;14.90;99.90;;;;;;5049169;28;20052;-62
2023/09/27 07:12:55;;;;;;;29.73;25.67;;;14.80;99.90;;;;;;5053339;28;20053;-62
2023/09/27 07:19:05;;;;;;;32.45;26.77;;;15.00;99.90;;;;;;5053006;28;20044;-63
2023/09/27 07:21:31;;;;;;;30.90;27.25;;;15.00;99.90;;;;;;5051508;28;20049;-62
2023/09/27 07:23:57;;;;;;;31.05;26.13;;;15.10;99.90;;;;;;5065307;28;20101;-62
2023/09/27 07:26:22;;;;;;;32.33;26.98;;;15.30;99.90;;;;;;5069532;28;20044;-62
2023/09/27 07:28:48;;;;;;;34.05;29.15;;;15.20;99.90;;;;;;5060349;28;20056;-62
2023/09/27 07:31:15;;;;;;;30.80;26.80;;;15.30;99.90;;;;;;5050655;28;20474;-62
2023/09/27 07:33:43;;;;;;;29.38;25.63;;;15.40;99.90;;;;;;5050657;28;20098;-65
2023/09/27 07:36:09;;;;;;;30.65;27.27;;;15.40;99.90;;;;;;5052774;28;20052;-63
2023/09/27 07:38:38;;;;;;;34.30;26.95;;;15.40;99.90;;;;;;5067189;28;20045;-63
2023/09/27 07:41:04;;;;;;;28.80;25.23;;;15.60;99.90;;;;;;5045142;28;20040;-63
2023/09/27 07:43:30;;;;;;;31.80;27.85;;;15.60;99.90;;;;;;5053173;28;20056;-63
2023/09/27 07:45:56;;;;;;;33.20;26.48;;;15.60;99.90;;;;;;5062040;28;20398;-63
2023/09/27 07:48:22;;;;;;;32.53;26.65;;;15.70;99.90;;;;;;5036354;28;20056;-63
2023/09/27 07:50:48;;;;;;;34.58;26.83;;;15.80;99.90;;;;;;5051045;28;20053;-63
2023/09/27 07:53:13;;;;;;;33.63;26.50;;;15.80;99.90;;;;;;5073707;28;20581;-62
2023/09/27 07:55:46;;;;;;;28.75;23.17;;;15.80;99.90;;;;;;5058553;28;20109;-63
2023/09/27 07:58:13;;;;;;;36.78;29.77;;;15.90;99.90;;;;;;5065486;28;20045;-63
2023/09/27 08:00:43;;;;;;;32.10;27.67;;;15.90;99.90;;;;;;5049265;28;20040;-62
2023/09/27 08:03:10;;;;;;;31.88;25.58;;;16.00;99.90;;;;;;5050913;28;20072;-63
2023/09/27 08:05:42;;;;;;;34.55;27.95;;;16.10;99.90;;;;;;5049589;28;20033;-63
2023/09/27 08:08:13;;;;;;;29.95;24.98;;;16.20;99.90;;;;;;5050747;28;20053;-64
2023/09/27 08:10:43;;;;;;;31.35;26.20;;;16.20;99.90;;;;;;5051092;28;20055;-62
2023/09/27 08:13:18;;;;;;;31.73;26.02;;;16.30;99.90;;;;;;5050068;28;20498;-63
2023/09/27 08:15:48;;;;;;;30.95;26.73;;;16.40;99.90;;;;;;5050501;28;20041;-63
2023/09/27 08:18:15;;;;;;;32.55;29.02;;;16.40;99.90;;;;;;5050988;28;20044;-63
2023/09/27 08:20:41;;;;;;;39.88;31.08;;;16.50;99.90;;;;;;5066009;28;20040;-63
2023/09/27 08:23:06;;;;;;;30.13;26.45;;;16.60;99.90;;;;;;5059421;28;20036;-62
2023/09/27 08:25:32;;;;;;;30.92;27.55;;;16.60;99.90;;;;;;5050547;28;20044;-62
2023/09/27 08:28:01;;;;;;;29.52;25.52;;;16.80;99.90;;;;;;5051151;28;20083;-62
2023/09/27 08:30:26;;;;;;;30.55;24.00;;;16.80;99.90;;;;;;5053376;28;20084;-62
2023/09/27 08:32:52;;;;;;;28.52;22.27;;;16.80;99.90;;;;;;5062137;28;20075;-62
2023/09/27 08:35:18;;;;;;;27.70;23.40;;;16.80;99.90;;;;;;5056497;28;20078;-62
2023/09/27 08:37:44;;;;;;;29.67;24.45;;;16.90;99.90;;;;;;5071281;28;20465;-62
2023/09/27 08:40:13;;;;;;;26.38;23.48;;;17.00;99.90;;;;;;5067715;28;20049;-61
2023/09/27 08:42:40;;;;;;;30.77;24.17;;;17.10;99.90;;;;;;5053577;28;20082;-60
2023/09/27 08:45:14;;;;;;;28.67;23.90;;;17.20;99.90;;;;;;5035405;28;20052;-61
2023/09/27 08:47:42;;;;;;;32.97;25.45;;;17.30;99.90;;;;;;5052058;28;20052;-61
2023/09/27 08:50:11;;;;;;;27.98;23.25;;;17.40;99.90;;;;;;5052453;28;20068;-61
2023/09/27 08:52:38;;;;;;;31.80;26.52;;;17.60;99.90;;;;;;5052865;28;20098;-61
2023/09/27 08:55:06;;;;;;;24.17;21.63;;;17.50;99.90;;;;;;5035397;28;20044;-61
2023/09/27 08:57:34;;;;;;;28.40;22.23;;;17.60;99.90;;;;;;5053595;28;20037;-65
2023/09/27 09:00:00;;;;;;;26.48;22.35;;;17.70;99.90;;;;;;5054896;28;20485;-63
2023/09/27 09:02:26;;;;;;;26.10;20.58;;;17.80;99.90;;;;;;5038584;28;20039;-62
2023/09/27 09:04:52;;;;;;;22.48;19.67;;;17.80;99.90;;;;;;5072671;28;20512;-62
2023/09/27 09:07:18;;;;;;;24.67;20.73;;;17.80;99.90;;;;;;5073139;28;20052;-62
2023/09/27 09:09:45;;;;;;;26.65;21.70;;;17.90;99.90;;;;;;5071208;28;20055;-62
2023/09/27 09:12:12;;;;;;;24.25;19.45;;;17.90;99.90;;;;;;5072165;28;20036;-62
2023/09/27 09:14:43;;;;;;;28.65;23.05;;;17.90;99.90;;;;;;5071833;28;20059;-62
2023/09/27 09:17:17;;;;;;;22.95;20.23;;;18.10;99.90;;;;;;5071116;28;20055;-63
2023/09/27 09:19:43;;;;;;;27.58;19.98;;;18.10;99.90;;;;;;5072349;28;20040;-62
2023/09/27 09:22:11;;;;;;;22.63;19.80;;;18.20;99.90;;;;;;5071279;28;20099;-63
2023/09/27 09:24:41;;;;;;;22.55;18.67;;;18.20;99.90;;;;;;5071898;28;20048;-62
2023/09/27 09:27:16;;;;;;;23.13;19.05;;;18.30;99.90;;;;;;5072928;28;20050;-62
2023/09/27 09:29:49;;;;;;;26.13;19.73;;;18.40;99.90;;;;;;5104501;28;20072;-63
2023/09/27 09:32:17;;;;;;;27.55;21.70;;;18.40;99.90;;;;;;5071015;28;20044;-62
2023/09/27 09:34:44;;;;;;;23.23;17.67;;;18.40;99.90;;;;;;5071480;28;20044;-63
2023/09/27 09:37:19;;;;;;;22.90;17.60;;;18.40;99.90;;;;;;5070738;28;20055;-62
2023/09/27 09:39:46;;;;;;;22.80;18.92;;;18.40;99.90;;;;;;5071340;28;20047;-62
2023/09/27 09:42:14;;;;;;;22.45;18.20;;;18.50;99.90;;;;;;5071400;28;20394;-62
2023/09/27 09:44:40;;;;;;;26.95;17.60;;;18.50;99.90;;;;;;5070434;28;20052;-62
2023/09/27 09:47:12;;;;;;;21.83;16.50;;;18.60;99.90;;;;;;5105318;28;20052;-62
2023/09/27 09:49:38;;;;;;;19.13;16.42;;;18.70;99.90;;;;;;5072332;28;20064;-62
2023/09/27 09:52:05;;;;;;;23.38;16.13;;;18.70;99.90;;;;;;5054087;28;20106;-63
2023/09/27 09:54:46;;;;;;;21.05;17.15;;;18.80;99.90;;;;;;5070673;28;20056;-62
2023/09/27 09:57:13;;;;;;;20.05;14.25;;;18.90;99.90;;;;;;5070363;28;20083;-62
2023/09/27 10:00:17;;;;;;;19.27;13.70;;;18.90;99.90;;;;;;5071351;28;20170;-63
2023/09/27 10:02:53;;;;;;;21.83;16.48;;;19.00;99.90;;;;;;5068482;28;20088;-63
2023/09/27 10:05:19;;;;;;;19.60;12.85;;;19.10;99.90;;;;;;5070264;28;20078;-63
2023/09/27 10:07:46;;;;;;;16.52;12.90;;;19.10;99.90;;;;;;5070941;28;20044;-62
2023/09/27 10:10:15;;;;;;;17.58;15.07;;;19.00;99.90;;;;;;5072223;28;20051;-63
2023/09/27 10:12:46;;;;;;;18.17;14.52;;;18.90;99.90;;;;;;5069954;28;20043;-63
2023/09/27 10:15:17;;;;;;;20.65;12.23;;;18.90;99.90;;;;;;5070805;28;20497;-63
2023/09/27 10:17:43;;;;;;;22.27;12.88;;;18.90;99.90;;;;;;5070949;28;20072;-63
2023/09/27 10:20:13;;;;;;;19.95;15.32;;;18.90;99.90;;;;;;5070418;28;20495;-63
2023/09/27 10:22:44;;;;;;;19.17;13.07;;;18.90;99.90;;;;;;5070908;28;20048;-62
2023/09/27 10:25:31;;;;;;;18.13;12.07;;;18.90;99.90;;;;;;5069948;28;20048;-63
2023/09/27 10:28:04;;;;;;;18.60;13.48;;;19.00;99.90;;;;;;5071304;28;20037;-63
2023/09/27 10:30:50;;;;;;;22.38;12.57;;;18.90;99.90;;;;;;5070606;28;20075;-62
2023/09/27 10:33:15;;;;;;;16.92;11.38;;;18.90;99.90;;;;;;5056226;28;20075;-63
2023/09/27 10:36:01;;;;;;;17.40;11.18;;;19.00;99.90;;;;;;5104338;28;20557;-63
2023/09/27 10:38:42;;;;;;;15.43;12.52;;;19.00;99.90;;;;;;5040068;28;20067;-62
2023/09/27 10:41:08;;;;;;;15.48;10.32;;;19.00;99.90;;;;;;5103396;28;20048;-62
2023/09/27 10:43:34;;;;;;;22.15;12.65;;;19.10;99.90;;;;;;5070773;28;20551;-62
2023/09/27 10:46:04;;;;;;;17.92;11.80;;;19.10;99.90;;;;;;5107793;28;20052;-63
2023/09/27 10:48:33;;;;;;;21.45;13.93;;;19.20;99.90;;;;;;5073727;28;20050;-63
2023/09/27 10:50:59;;;;;;;19.95;11.80;;;19.20;99.90;;;;;;5057966;28;20053;-62
2023/09/27 10:53:26;;;;;;;16.00;12.95;;;19.20;99.90;;;;;;5073753;28;20494;-63
2023/09/27 10:55:53;;;;;;;17.80;13.02;;;19.20;99.90;;;;;;5074645;28;20070;-62
2023/09/27 10:58:18;;;;;;;18.02;12.82;;;19.20;99.90;;;;;;5075766;28;20033;-62
2023/09/27 11:00:51;;;;;;;21.63;14.55;;;19.30;99.90;;;;;;5074921;28;20119;-63
2023/09/27 11:03:17;;;;;;;16.17;13.23;;;19.20;99.90;;;;;;5091195;28;20086;-63
2023/09/27 11:05:43;;;;;;;18.75;13.70;;;19.20;99.90;;;;;;5074379;28;20044;-62
2023/09/27 11:08:09;;;;;;;21.33;13.10;;;19.30;99.90;;;;;;5073531;28;20044;-63
2023/09/27 11:10:35;;;;;;;18.33;14.52;;;19.20;99.90;;;;;;5108353;28;20041;-62
2023/09/27 11:13:11;;;;;;;18.92;14.52;;;19.20;99.90;;;;;;5075769;28;20063;-62
2023/09/27 11:15:41;;;;;;;17.92;12.80;;;19.20;99.90;;;;;;5073457;28;20048;-62
2023/09/27 11:18:08;;;;;;;16.50;11.73;;;19.20;99.90;;;;;;5074155;28;20066;-62
2023/09/27 11:20:34;;;;;;;16.13;12.43;;;19.20;99.90;;;;;;5057453;28;20051;-62
2023/09/27 11:23:04;;;;;;;19.15;15.02;;;19.20;99.90;;;;;;5073788;28;20101;-62
2023/09/27 11:25:31;;;;;;;19.42;14.32;;;19.20;99.90;;;;;;5074870;28;20554;-63
2023/09/27 11:27:57;;;;;;;14.68;12.15;;;19.30;99.90;;;;;;5074267;28;20032;-62
2023/09/27 11:30:29;;;;;;;18.38;13.77;;;19.30;99.90;;;;;;5074585;28;20043;-62
2023/09/27 11:32:56;;;;;;;17.80;12.73;;;19.30;99.90;;;;;;5074464;28;20075;-62
2023/09/27 11:35:25;;;;;;;18.58;12.00;;;19.30;99.90;;;;;;5073578;28;20056;-62
2023/09/27 11:38:04;;;;;;;16.73;13.25;;;19.30;99.90;;;;;;5073280;28;20114;-62
2023/09/27 11:40:32;;;;;;;19.00;12.82;;;19.30;99.90;;;;;;5074710;28;20044;-62
2023/09/27 11:42:58;;;;;;;19.02;14.30;;;19.40;99.90;;;;;;5073206;28;20044;-62
2023/09/27 11:45:24;;;;;;;16.02;13.50;;;19.40;99.90;;;;;;5107443;28;20037;-62
2023/09/27 11:47:50;;;;;;;21.05;15.10;;;19.40;99.90;;;;;;5107414;28;20049;-62
2023/09/27 11:50:17;;;;;;;17.80;13.52;;;19.50;99.90;;;;;;5073878;28;20053;-63
2023/09/27 11:52:46;;;;;;;15.52;10.82;;;19.50;99.90;;;;;;5073443;28;20048;-63
2023/09/27 11:55:13;;;;;;;17.38;11.25;;;19.50;99.90;;;;;;5073000;28;20041;-62
2023/09/27 11:57:39;;;;;;;14.73;10.38;;;19.50;99.90;;;;;;5072520;28;20049;-62
2023/09/27 12:00:08;;;;;;;22.20;11.20;;;19.60;99.90;;;;;;5073943;28;20123;-62
2023/09/27 12:02:35;;;;;;;17.85;12.02;;;19.60;99.90;;;;;;5073660;28;20048;-62
2023/09/27 12:05:01;;;;;;;14.45;11.00;;;19.60;99.90;;;;;;5074096;28;20048;-62
2023/09/27 12:07:29;;;;;;;16.65;10.40;;;19.60;99.90;;;;;;5056556;28;20095;-62
2023/09/27 12:09:55;;;;;;;15.07;9.98;;;19.60;99.90;;;;;;5073595;28;20071;-62
2023/09/27 12:12:21;;;;;;;14.60;9.85;;;19.70;99.90;;;;;;5072554;28;20129;-62
2023/09/27 12:14:46;;;;;;;16.27;10.05;;;19.80;99.90;;;;;;5073029;28;20482;-62
2023/09/27 12:17:12;;;;;;;15.02;8.50;;;19.90;99.90;;;;;;5106794;28;20040;-63
2023/09/27 12:19:38;;;;;;;15.80;9.07;;;20.00;99.90;;;;;;5072166;28;20040;-62
2023/09/27 12:22:04;;;;;;;12.43;7.85;;;20.10;99.90;;;;;;5073173;28;20126;-63
2023/09/27 12:24:30;;;;;;;10.70;6.80;;;20.20;99.90;;;;;;5072694;28;20052;-62
2023/09/27 12:26:56;;;;;;;13.65;7.15;;;20.20;99.90;;;;;;5055626;28;20524;-63
2023/09/27 12:29:22;;;;;;;12.27;7.07;;;20.30;99.90;;;;;;5073982;28;20036;-63
2023/09/27 12:31:48;;;;;;;11.50;7.03;;;20.40;99.90;;;;;;5055173;28;20047;-63